sensor_id;sensor_type;location;lat;lon;timestamp;temperature;humidity
7622;DHT22;3852;52.284;8.032;2022-07-03T00:01:25;18.50;99.90
7622;DHT22;3852;52.284;8.032;2022-07-03T00:03:51;18.30;99.90
7622;DHT22;3852;52.284;8.032;2022-07-03T00:06:19;18.20;99.90
7622;DHT22;3852;52.284;8.032;2022-07-03T00:08:45;18.10;99.90
7622;DHT22;3852;52.284;8.032;2022-07-03T00:11:15;18.10;99.90
7622;DHT22;3852;52.284;8.032;2022-07-03T00:13:41;18.10;99.90
7622;DHT22;3852;52.284;8.032;2022-07-03T00:16:07;18.00;99.90
7622;DHT22;3852;52.284;8.032;2022-07-03T00:18:33;18.00;99.90
7622;DHT22;3852;52.284;8.032;2022-07-03T00:21:03;17.90;99.90
7622;DHT22;3852;52.284;8.032;2022-07-03T00:23:40;17.90;99.90
7622;DHT22;3852;52.284;8.032;2022-07-03T00:26:07;17.90;99.90
7622;DHT22;3852;52.284;8.032;2022-07-03T00:28:34;17.90;99.90
7622;DHT22;3852;52.284;8.032;2022-07-03T00:31:01;17.90;99.90
7622;DHT22;3852;52.284;8.032;2022-07-03T00:33:30;17.90;99.90
7622;DHT22;3852;52.284;8.032;2022-07-03T00:35:59;17.90;99.90
7622;DHT22;3852;52.284;8.032;2022-07-03T00:38:26;17.80;99.90
7622;DHT22;3852;52.284;8.032;2022-07-03T00:40:52;17.80;99.90
7622;DHT22;3852;52.284;8.032;2022-07-03T00:43:18;17.80;99.90
7622;DHT22;3852;52.284;8.032;2022-07-03T00:45:48;17.70;99.90
7622;DHT22;3852;52.284;8.032;2022-07-03T00:48:16;17.70;99.90
7622;DHT22;3852;52.284;8.032;2022-07-03T00:50:50;17.60;99.90
7622;DHT22;3852;52.284;8.032;2022-07-03T00:53:28;17.50;99.90
7622;DHT22;3852;52.284;8.032;2022-07-03T00:55:56;17.40;99.90
7622;DHT22;3852;52.284;8.032;2022-07-03T00:58:24;17.30;99.90
7622;DHT22;3852;52.284;8.032;2022-07-03T01:00:52;17.30;99.90
7622;DHT22;3852;52.284;8.032;2022-07-03T01:03:20;17.30;99.90
7622;DHT22;3852;52.284;8.032;2022-07-03T01:05:53;17.30;99.90
7622;DHT22;3852;52.284;8.032;2022-07-03T01:08:37;17.30;99.90
7622;DHT22;3852;52.284;8.032;2022-07-03T01:11:31;17.20;99.90
7622;DHT22;3852;52.284;8.032;2022-07-03T01:16:59;17.10;99.90
7622;DHT22;3852;52.284;8.032;2022-07-03T01:19:41;17.10;99.90
7622;DHT22;3852;52.284;8.032;2022-07-03T01:25:16;17.00;99.90
7622;DHT22;3852;52.284;8.032;2022-07-03T01:27:58;17.00;99.90
7622;DHT22;3852;52.284;8.032;2022-07-03T01:30:48;17.00;99.90
7622;DHT22;3852;52.284;8.032;2022-07-03T01:33:18;17.10;99.90
7622;DHT22;3852;52.284;8.032;2022-07-03T01:38:33;17.10;99.90
7622;DHT22;3852;52.284;8.032;2022-07-03T01:41:02;17.10;99.90
7622;DHT22;3852;52.284;8.032;2022-07-03T01:43:32;17.10;99.90
7622;DHT22;3852;52.284;8.032;2022-07-03T01:46:00;17.20;99.90
7622;DHT22;3852;52.284;8.032;2022-07-03T01:48:28;17.10;99.90
7622;DHT22;3852;52.284;8.032;2022-07-03T01:50:58;17.10;99.90
7622;DHT22;3852;52.284;8.032;2022-07-03T01:53:26;17.10;99.90
7622;DHT22;3852;52.284;8.032;2022-07-03T01:56:01;17.10;99.90
7622;DHT22;3852;52.284;8.032;2022-07-03T01:58:27;17.00;99.90
7622;DHT22;3852;52.284;8.032;2022-07-03T02:01:29;16.90;99.90
7622;DHT22;3852;52.284;8.032;2022-07-03T02:04:04;16.90;99.90
7622;DHT22;3852;52.284;8.032;2022-07-03T02:06:44;16.80;99.90
7622;DHT22;3852;52.284;8.032;2022-07-03T02:09:24;16.80;99.90
7622;DHT22;3852;52.284;8.032;2022-07-03T02:11:59;16.80;99.90
7622;DHT22;3852;52.284;8.032;2022-07-03T02:14:32;16.70;99.90
7622;DHT22;3852;52.284;8.032;2022-07-03T02:17:17;16.70;99.90
7622;DHT22;3852;52.284;8.032;2022-07-03T02:19:54;16.70;99.90
7622;DHT22;3852;52.284;8.032;2022-07-03T02:22:26;16.60;99.90
7622;DHT22;3852;52.284;8.032;2022-07-03T02:24:57;16.60;99.90
7622;DHT22;3852;52.284;8.032;2022-07-03T02:27:43;16.60;99.90
7622;DHT22;3852;52.284;8.032;2022-07-03T02:30:11;16.50;99.90
7622;DHT22;3852;52.284;8.032;2022-07-03T02:32:43;16.50;99.90
7622;DHT22;3852;52.284;8.032;2022-07-03T02:35:12;16.40;99.90
7622;DHT22;3852;52.284;8.032;2022-07-03T02:37:50;16.40;99.90
7622;DHT22;3852;52.284;8.032;2022-07-03T02:40:45;16.40;99.90
7622;DHT22;3852;52.284;8.032;2022-07-03T02:50:06;16.30;99.90
7622;DHT22;3852;52.284;8.032;2022-07-03T03:01:16;16.10;99.90
7622;DHT22;3852;52.284;8.032;2022-07-03T03:04:09;16.10;99.90
7622;DHT22;3852;52.284;8.032;2022-07-03T03:06:42;16.00;99.90
7622;DHT22;3852;52.284;8.032;2022-07-03T03:09:19;15.90;99.90
7622;DHT22;3852;52.284;8.032;2022-07-03T03:11:47;15.90;99.90
7622;DHT22;3852;52.284;8.032;2022-07-03T03:14:20;15.90;99.90
7622;DHT22;3852;52.284;8.032;2022-07-03T03:16:53;15.80;99.90
7622;DHT22;3852;52.284;8.032;2022-07-03T03:19:23;15.80;99.90
7622;DHT22;3852;52.284;8.032;2022-07-03T03:22:16;15.80;99.90
7622;DHT22;3852;52.284;8.032;2022-07-03T03:25:04;15.80;99.90
7622;DHT22;3852;52.284;8.032;2022-07-03T03:27:33;15.80;99.90
7622;DHT22;3852;52.284;8.032;2022-07-03T03:29:59;15.80;99.90
7622;DHT22;3852;52.284;8.032;2022-07-03T03:32:26;15.80;99.90
7622;DHT22;3852;52.284;8.032;2022-07-03T03:34:54;15.80;99.90
7622;DHT22;3852;52.284;8.032;2022-07-03T03:37:19;15.90;99.90
7622;DHT22;3852;52.284;8.032;2022-07-03T03:39:45;15.90;99.90
7622;DHT22;3852;52.284;8.032;2022-07-03T03:42:11;15.80;99.90
7622;DHT22;3852;52.284;8.032;2022-07-03T03:44:38;15.80;99.90
7622;DHT22;3852;52.284;8.032;2022-07-03T03:47:04;15.80;99.90
7622;DHT22;3852;52.284;8.032;2022-07-03T03:49:30;15.80;99.90
7622;DHT22;3852;52.284;8.032;2022-07-03T03:51:56;15.90;99.90
7622;DHT22;3852;52.284;8.032;2022-07-03T03:54:22;15.90;99.90
7622;DHT22;3852;52.284;8.032;2022-07-03T03:56:48;15.90;99.90
7622;DHT22;3852;52.284;8.032;2022-07-03T03:59:13;15.90;99.90
7622;DHT22;3852;52.284;8.032;2022-07-03T04:01:40;15.90;99.90
7622;DHT22;3852;52.284;8.032;2022-07-03T04:04:05;16.10;99.90
7622;DHT22;3852;52.284;8.032;2022-07-03T04:06:31;16.10;99.90
7622;DHT22;3852;52.284;8.032;2022-07-03T04:09:00;16.20;99.90
7622;DHT22;3852;52.284;8.032;2022-07-03T04:11:26;16.20;99.90
7622;DHT22;3852;52.284;8.032;2022-07-03T04:13:51;16.30;99.90
7622;DHT22;3852;52.284;8.032;2022-07-03T04:16:17;16.40;99.90
7622;DHT22;3852;52.284;8.032;2022-07-03T04:18:43;16.50;99.90
7622;DHT22;3852;52.284;8.032;2022-07-03T04:21:09;16.50;99.90
7622;DHT22;3852;52.284;8.032;2022-07-03T04:23:35;16.50;99.90
7622;DHT22;3852;52.284;8.032;2022-07-03T04:26:04;16.60;99.90
7622;DHT22;3852;52.284;8.032;2022-07-03T04:28:31;16.70;99.90
7622;DHT22;3852;52.284;8.032;2022-07-03T04:30:57;16.70;99.90
7622;DHT22;3852;52.284;8.032;2022-07-03T04:33:23;16.70;99.90
7622;DHT22;3852;52.284;8.032;2022-07-03T04:35:50;16.80;99.90
7622;DHT22;3852;52.284;8.032;2022-07-03T04:38:16;16.80;99.90
7622;DHT22;3852;52.284;8.032;2022-07-03T04:40:42;16.90;99.90
7622;DHT22;3852;52.284;8.032;2022-07-03T04:43:08;17.00;99.90
7622;DHT22;3852;52.284;8.032;2022-07-03T04:45:33;17.00;99.90
7622;DHT22;3852;52.284;8.032;2022-07-03T04:47:59;17.10;99.90
7622;DHT22;3852;52.284;8.032;2022-07-03T04:50:25;17.20;99.90
7622;DHT22;3852;52.284;8.032;2022-07-03T04:52:51;17.40;99.90
7622;DHT22;3852;52.284;8.032;2022-07-03T04:55:17;17.40;99.90
7622;DHT22;3852;52.284;8.032;2022-07-03T04:57:42;17.50;99.90
7622;DHT22;3852;52.284;8.032;2022-07-03T05:00:09;17.70;99.90
7622;DHT22;3852;52.284;8.032;2022-07-03T05:02:35;17.80;99.90
7622;DHT22;3852;52.284;8.032;2022-07-03T05:05:01;18.00;99.90
7622;DHT22;3852;52.284;8.032;2022-07-03T05:07:27;18.30;99.90
7622;DHT22;3852;52.284;8.032;2022-07-03T05:09:53;18.40;99.90
7622;DHT22;3852;52.284;8.032;2022-07-03T05:12:18;18.40;99.90
7622;DHT22;3852;52.284;8.032;2022-07-03T05:14:44;18.30;99.90
7622;DHT22;3852;52.284;8.032;2022-07-03T05:17:10;18.40;99.90
7622;DHT22;3852;52.284;8.032;2022-07-03T05:19:37;18.70;99.90
7622;DHT22;3852;52.284;8.032;2022-07-03T05:22:04;19.10;99.90
7622;DHT22;3852;52.284;8.032;2022-07-03T05:24:29;19.10;99.90
7622;DHT22;3852;52.284;8.032;2022-07-03T05:26:55;18.90;99.90
7622;DHT22;3852;52.284;8.032;2022-07-03T05:29:21;18.80;99.90
7622;DHT22;3852;52.284;8.032;2022-07-03T05:31:47;18.80;99.90
7622;DHT22;3852;52.284;8.032;2022-07-03T05:34:12;18.90;99.90
7622;DHT22;3852;52.284;8.032;2022-07-03T05:36:38;18.90;99.90
7622;DHT22;3852;52.284;8.032;2022-07-03T05:39:04;18.90;99.90
7622;DHT22;3852;52.284;8.032;2022-07-03T05:41:48;18.80;99.90
7622;DHT22;3852;52.284;8.032;2022-07-03T05:44:14;18.80;99.90
7622;DHT22;3852;52.284;8.032;2022-07-03T05:46:40;18.80;99.90
7622;DHT22;3852;52.284;8.032;2022-07-03T05:49:05;18.70;99.90
7622;DHT22;3852;52.284;8.032;2022-07-03T05:51:31;18.70;99.90
7622;DHT22;3852;52.284;8.032;2022-07-03T05:53:57;18.70;99.90
7622;DHT22;3852;52.284;8.032;2022-07-03T05:56:23;18.70;99.90
7622;DHT22;3852;52.284;8.032;2022-07-03T05:58:50;18.80;99.90
7622;DHT22;3852;52.284;8.032;2022-07-03T06:01:16;18.80;99.90
7622;DHT22;3852;52.284;8.032;2022-07-03T06:03:42;18.90;99.90
7622;DHT22;3852;52.284;8.032;2022-07-03T06:06:07;19.00;99.90
7622;DHT22;3852;52.284;8.032;2022-07-03T06:08:33;19.00;99.90
7622;DHT22;3852;52.284;8.032;2022-07-03T06:10:59;19.20;99.90
7622;DHT22;3852;52.284;8.032;2022-07-03T06:13:25;19.40;99.90
7622;DHT22;3852;52.284;8.032;2022-07-03T06:15:51;19.70;99.90
7622;DHT22;3852;52.284;8.032;2022-07-03T06:18:16;19.80;99.90
7622;DHT22;3852;52.284;8.032;2022-07-03T06:20:42;20.00;99.90
7622;DHT22;3852;52.284;8.032;2022-07-03T06:23:08;20.00;99.90
7622;DHT22;3852;52.284;8.032;2022-07-03T06:25:36;20.20;99.90
7622;DHT22;3852;52.284;8.032;2022-07-03T06:28:02;20.30;99.90
7622;DHT22;3852;52.284;8.032;2022-07-03T06:30:28;20.40;99.90
7622;DHT22;3852;52.284;8.032;2022-07-03T06:32:54;20.60;99.90
7622;DHT22;3852;52.284;8.032;2022-07-03T06:35:19;20.70;99.90
7622;DHT22;3852;52.284;8.032;2022-07-03T06:37:45;20.90;99.90
7622;DHT22;3852;52.284;8.032;2022-07-03T06:40:11;21.00;99.90
7622;DHT22;3852;52.284;8.032;2022-07-03T06:42:37;21.10;99.90
7622;DHT22;3852;52.284;8.032;2022-07-03T06:45:03;21.10;99.90
7622;DHT22;3852;52.284;8.032;2022-07-03T06:47:29;21.30;99.90
7622;DHT22;3852;52.284;8.032;2022-07-03T06:49:55;21.40;99.90
7622;DHT22;3852;52.284;8.032;2022-07-03T06:52:20;21.60;99.90
7622;DHT22;3852;52.284;8.032;2022-07-03T06:54:46;21.80;99.90
7622;DHT22;3852;52.284;8.032;2022-07-03T06:57:13;22.00;99.90
7622;DHT22;3852;52.284;8.032;2022-07-03T06:59:40;22.50;99.90
7622;DHT22;3852;52.284;8.032;2022-07-03T07:02:07;23.10;99.90
7622;DHT22;3852;52.284;8.032;2022-07-03T07:04:33;23.40;99.90
7622;DHT22;3852;52.284;8.032;2022-07-03T07:06:59;23.60;99.90
7622;DHT22;3852;52.284;8.032;2022-07-03T07:09:25;23.50;99.90
7622;DHT22;3852;52.284;8.032;2022-07-03T07:11:51;23.50;99.90
7622;DHT22;3852;52.284;8.032;2022-07-03T07:14:17;23.40;99.90
7622;DHT22;3852;52.284;8.032;2022-07-03T07:16:42;23.50;99.90
7622;DHT22;3852;52.284;8.032;2022-07-03T07:19:08;23.60;99.90
7622;DHT22;3852;52.284;8.032;2022-07-03T07:21:34;23.70;99.90
7622;DHT22;3852;52.284;8.032;2022-07-03T07:24:00;23.70;99.90
7622;DHT22;3852;52.284;8.032;2022-07-03T07:26:26;24.30;99.90
7622;DHT22;3852;52.284;8.032;2022-07-03T07:28:51;25.30;99.90
7622;DHT22;3852;52.284;8.032;2022-07-03T07:31:17;26.50;99.90
7622;DHT22;3852;52.284;8.032;2022-07-03T07:33:43;27.50;99.90
7622;DHT22;3852;52.284;8.032;2022-07-03T07:36:09;28.60;99.90
7622;DHT22;3852;52.284;8.032;2022-07-03T07:38:34;29.20;99.90
7622;DHT22;3852;52.284;8.032;2022-07-03T07:41:00;29.20;99.90
7622;DHT22;3852;52.284;8.032;2022-07-03T07:43:26;28.50;99.90
7622;DHT22;3852;52.284;8.032;2022-07-03T07:45:52;27.40;99.90
7622;DHT22;3852;52.284;8.032;2022-07-03T07:48:18;26.00;99.90
7622;DHT22;3852;52.284;8.032;2022-07-03T07:50:44;25.30;99.90
7622;DHT22;3852;52.284;8.032;2022-07-03T07:53:10;25.10;99.90
7622;DHT22;3852;52.284;8.032;2022-07-03T07:55:36;24.90;99.90
7622;DHT22;3852;52.284;8.032;2022-07-03T07:58:01;24.80;99.90
7622;DHT22;3852;52.284;8.032;2022-07-03T08:00:27;24.90;99.90
7622;DHT22;3852;52.284;8.032;2022-07-03T08:02:53;25.00;99.90
7622;DHT22;3852;52.284;8.032;2022-07-03T08:05:37;25.00;99.90
7622;DHT22;3852;52.284;8.032;2022-07-03T08:10:48;24.90;99.90
7622;DHT22;3852;52.284;8.032;2022-07-03T08:13:17;24.90;99.90
7622;DHT22;3852;52.284;8.032;2022-07-03T08:15:44;24.80;99.90
7622;DHT22;3852;52.284;8.032;2022-07-03T08:18:11;24.70;99.90
7622;DHT22;3852;52.284;8.032;2022-07-03T08:20:38;24.70;99.90
7622;DHT22;3852;52.284;8.032;2022-07-03T08:23:04;24.70;99.90
7622;DHT22;3852;52.284;8.032;2022-07-03T08:25:32;24.70;99.90
7622;DHT22;3852;52.284;8.032;2022-07-03T08:27:58;24.80;99.90
7622;DHT22;3852;52.284;8.032;2022-07-03T08:30:25;24.80;99.90
7622;DHT22;3852;52.284;8.032;2022-07-03T08:32:53;24.70;99.90
7622;DHT22;3852;52.284;8.032;2022-07-03T08:35:20;24.80;99.90
7622;DHT22;3852;52.284;8.032;2022-07-03T08:37:47;24.80;99.90
7622;DHT22;3852;52.284;8.032;2022-07-03T08:40:17;24.90;99.90
7622;DHT22;3852;52.284;8.032;2022-07-03T08:42:49;25.00;99.90
7622;DHT22;3852;52.284;8.032;2022-07-03T08:45:19;25.10;99.90
7622;DHT22;3852;52.284;8.032;2022-07-03T08:47:47;24.90;99.90
7622;DHT22;3852;52.284;8.032;2022-07-03T08:50:16;25.00;99.90
7622;DHT22;3852;52.284;8.032;2022-07-03T08:52:44;25.10;99.90
7622;DHT22;3852;52.284;8.032;2022-07-03T08:55:13;24.90;99.90
7622;DHT22;3852;52.284;8.032;2022-07-03T08:57:41;24.90;99.90
7622;DHT22;3852;52.284;8.032;2022-07-03T09:00:13;25.00;99.90
7622;DHT22;3852;52.284;8.032;2022-07-03T09:02:42;25.10;99.90
7622;DHT22;3852;52.284;8.032;2022-07-03T09:05:10;25.30;99.90
7622;DHT22;3852;52.284;8.032;2022-07-03T09:07:41;25.30;99.90
7622;DHT22;3852;52.284;8.032;2022-07-03T09:10:11;25.40;99.90
7622;DHT22;3852;52.284;8.032;2022-07-03T09:12:38;25.60;99.90
7622;DHT22;3852;52.284;8.032;2022-07-03T09:15:06;25.70;99.90
7622;DHT22;3852;52.284;8.032;2022-07-03T09:17:33;25.70;99.90
7622;DHT22;3852;52.284;8.032;2022-07-03T09:20:03;25.50;99.90
7622;DHT22;3852;52.284;8.032;2022-07-03T09:22:36;25.50;99.90
7622;DHT22;3852;52.284;8.032;2022-07-03T09:25:10;25.50;99.90
7622;DHT22;3852;52.284;8.032;2022-07-03T09:27:39;25.60;99.90
7622;DHT22;3852;52.284;8.032;2022-07-03T09:30:17;25.90;99.90
7622;DHT22;3852;52.284;8.032;2022-07-03T09:32:45;25.90;99.90
7622;DHT22;3852;52.284;8.032;2022-07-03T09:35:16;25.90;99.90
7622;DHT22;3852;52.284;8.032;2022-07-03T09:38:00;26.00;99.90
7622;DHT22;3852;52.284;8.032;2022-07-03T09:40:52;26.00;99.90
7622;DHT22;3852;52.284;8.032;2022-07-03T09:43:29;25.90;99.90
7622;DHT22;3852;52.284;8.032;2022-07-03T09:46:02;26.00;99.90
7622;DHT22;3852;52.284;8.032;2022-07-03T09:51:12;26.10;99.90
7622;DHT22;3852;52.284;8.032;2022-07-03T09:54:00;26.10;99.90
7622;DHT22;3852;52.284;8.032;2022-07-03T09:56:37;25.70;99.90
7622;DHT22;3852;52.284;8.032;2022-07-03T09:59:14;25.70;99.90
7622;DHT22;3852;52.284;8.032;2022-07-03T10:01:45;26.00;99.90
7622;DHT22;3852;52.284;8.032;2022-07-03T10:04:14;26.30;99.90
7622;DHT22;3852;52.284;8.032;2022-07-03T10:06:57;26.50;99.90
7622;DHT22;3852;52.284;8.032;2022-07-03T10:09:29;26.50;99.90
7622;DHT22;3852;52.284;8.032;2022-07-03T10:12:00;26.60;99.90
7622;DHT22;3852;52.284;8.032;2022-07-03T10:14:29;26.90;99.90
7622;DHT22;3852;52.284;8.032;2022-07-03T10:16:57;27.00;99.90
7622;DHT22;3852;52.284;8.032;2022-07-03T10:19:26;26.80;99.90
7622;DHT22;3852;52.284;8.032;2022-07-03T10:24:22;26.30;99.90
7622;DHT22;3852;52.284;8.032;2022-07-03T10:26:52;26.00;99.90
7622;DHT22;3852;52.284;8.032;2022-07-03T10:29:21;25.60;99.90
7622;DHT22;3852;52.284;8.032;2022-07-03T10:31:49;25.60;99.90
7622;DHT22;3852;52.284;8.032;2022-07-03T10:34:23;25.80;99.90
7622;DHT22;3852;52.284;8.032;2022-07-03T10:36:58;26.00;99.90
7622;DHT22;3852;52.284;8.032;2022-07-03T10:42:44;25.70;99.90
7622;DHT22;3852;52.284;8.032;2022-07-03T10:45:30;25.70;99.90
7622;DHT22;3852;52.284;8.032;2022-07-03T10:47:57;25.50;99.90
7622;DHT22;3852;52.284;8.032;2022-07-03T10:50:23;25.50;99.90
7622;DHT22;3852;52.284;8.032;2022-07-03T10:52:50;25.50;99.90
7622;DHT22;3852;52.284;8.032;2022-07-03T10:55:17;25.50;99.90
7622;DHT22;3852;52.284;8.032;2022-07-03T10:58:09;25.50;99.90
7622;DHT22;3852;52.284;8.032;2022-07-03T11:00:55;25.40;99.90
7622;DHT22;3852;52.284;8.032;2022-07-03T11:03:51;25.30;99.90
7622;DHT22;3852;52.284;8.032;2022-07-03T11:06:45;25.60;99.90
7622;DHT22;3852;52.284;8.032;2022-07-03T11:09:15;25.90;99.90
7622;DHT22;3852;52.284;8.032;2022-07-03T11:14:24;26.00;99.90
7622;DHT22;3852;52.284;8.032;2022-07-03T11:17:17;25.90;99.90
7622;DHT22;3852;52.284;8.032;2022-07-03T11:19:44;26.30;99.90
7622;DHT22;3852;52.284;8.032;2022-07-03T11:23:05;26.20;99.90
7622;DHT22;3852;52.284;8.032;2022-07-03T11:25:40;26.20;99.90
7622;DHT22;3852;52.284;8.032;2022-07-03T11:28:08;26.50;99.90
7622;DHT22;3852;52.284;8.032;2022-07-03T11:33:48;26.90;99.90
7622;DHT22;3852;52.284;8.032;2022-07-03T11:39:08;26.40;99.90
7622;DHT22;3852;52.284;8.032;2022-07-03T11:44:05;26.60;99.90
7622;DHT22;3852;52.284;8.032;2022-07-03T11:46:38;27.00;99.90
7622;DHT22;3852;52.284;8.032;2022-07-03T11:49:19;27.20;99.90
7622;DHT22;3852;52.284;8.032;2022-07-03T11:51:57;27.20;99.90
7622;DHT22;3852;52.284;8.032;2022-07-03T11:54:52;27.00;99.90
7622;DHT22;3852;52.284;8.032;2022-07-03T11:57:18;26.60;99.90
7622;DHT22;3852;52.284;8.032;2022-07-03T11:59:45;26.30;99.90
7622;DHT22;3852;52.284;8.032;2022-07-03T12:02:11;26.20;99.90
7622;DHT22;3852;52.284;8.032;2022-07-03T12:04:38;26.20;99.90
7622;DHT22;3852;52.284;8.032;2022-07-03T12:07:04;26.80;99.90
7622;DHT22;3852;52.284;8.032;2022-07-03T12:09:34;27.10;99.90
7622;DHT22;3852;52.284;8.032;2022-07-03T12:14:56;26.70;99.90
7622;DHT22;3852;52.284;8.032;2022-07-03T12:17:24;26.40;99.90
7622;DHT22;3852;52.284;8.032;2022-07-03T12:19:55;26.20;99.90
7622;DHT22;3852;52.284;8.032;2022-07-03T12:22:35;26.00;99.90
7622;DHT22;3852;52.284;8.032;2022-07-03T12:25:09;25.90;99.90
7622;DHT22;3852;52.284;8.032;2022-07-03T12:27:43;26.10;99.90
7622;DHT22;3852;52.284;8.032;2022-07-03T12:30:11;26.60;99.90
7622;DHT22;3852;52.284;8.032;2022-07-03T12:32:38;26.80;99.90
7622;DHT22;3852;52.284;8.032;2022-07-03T12:35:05;27.10;99.90
7622;DHT22;3852;52.284;8.032;2022-07-03T12:40:11;27.60;99.90
7622;DHT22;3852;52.284;8.032;2022-07-03T12:45:24;27.90;99.90
7622;DHT22;3852;52.284;8.032;2022-07-03T12:48:05;28.10;99.90
7622;DHT22;3852;52.284;8.032;2022-07-03T12:53:10;28.20;99.90
7622;DHT22;3852;52.284;8.032;2022-07-03T12:55:36;28.20;99.90
7622;DHT22;3852;52.284;8.032;2022-07-03T12:58:14;28.60;99.90
7622;DHT22;3852;52.284;8.032;2022-07-03T13:00:59;28.40;99.90
7622;DHT22;3852;52.284;8.032;2022-07-03T13:03:35;28.20;99.90
7622;DHT22;3852;52.284;8.032;2022-07-03T13:06:01;28.00;99.90
7622;DHT22;3852;52.284;8.032;2022-07-03T13:08:28;27.70;99.90
7622;DHT22;3852;52.284;8.032;2022-07-03T13:10:55;27.70;99.90
7622;DHT22;3852;52.284;8.032;2022-07-03T13:13:22;27.20;99.90
7622;DHT22;3852;52.284;8.032;2022-07-03T13:15:47;26.90;99.90
7622;DHT22;3852;52.284;8.032;2022-07-03T13:18:13;26.60;99.90
7622;DHT22;3852;52.284;8.032;2022-07-03T13:20:39;26.30;99.90
7622;DHT22;3852;52.284;8.032;2022-07-03T13:23:06;26.10;99.90
7622;DHT22;3852;52.284;8.032;2022-07-03T13:25:34;26.10;99.90
7622;DHT22;3852;52.284;8.032;2022-07-03T13:28:12;26.00;99.90
7622;DHT22;3852;52.284;8.032;2022-07-03T13:30:40;25.90;99.90
7622;DHT22;3852;52.284;8.032;2022-07-03T13:33:08;25.90;99.90
7622;DHT22;3852;52.284;8.032;2022-07-03T13:35:35;26.00;99.90
7622;DHT22;3852;52.284;8.032;2022-07-03T13:38:03;26.20;99.90
7622;DHT22;3852;52.284;8.032;2022-07-03T13:40:29;26.50;99.90
7622;DHT22;3852;52.284;8.032;2022-07-03T13:42:55;27.00;99.90
7622;DHT22;3852;52.284;8.032;2022-07-03T13:45:21;27.00;99.90
7622;DHT22;3852;52.284;8.032;2022-07-03T13:47:47;27.10;99.90
7622;DHT22;3852;52.284;8.032;2022-07-03T13:50:13;27.30;99.90
7622;DHT22;3852;52.284;8.032;2022-07-03T13:52:39;27.10;99.90
7622;DHT22;3852;52.284;8.032;2022-07-03T13:55:05;26.70;99.90
7622;DHT22;3852;52.284;8.032;2022-07-03T13:57:31;26.50;99.90
7622;DHT22;3852;52.284;8.032;2022-07-03T13:59:58;26.90;99.90
7622;DHT22;3852;52.284;8.032;2022-07-03T14:02:24;27.30;99.90
7622;DHT22;3852;52.284;8.032;2022-07-03T14:04:50;27.50;99.90
7622;DHT22;3852;52.284;8.032;2022-07-03T14:07:16;27.40;99.90
7622;DHT22;3852;52.284;8.032;2022-07-03T14:09:42;27.60;99.90
7622;DHT22;3852;52.284;8.032;2022-07-03T14:12:08;27.20;99.90
7622;DHT22;3852;52.284;8.032;2022-07-03T14:14:34;27.20;99.90
7622;DHT22;3852;52.284;8.032;2022-07-03T14:17:00;27.30;99.90
7622;DHT22;3852;52.284;8.032;2022-07-03T14:19:26;27.30;99.90
7622;DHT22;3852;52.284;8.032;2022-07-03T14:21:52;27.30;99.90
7622;DHT22;3852;52.284;8.032;2022-07-03T14:24:17;27.30;99.90
7622;DHT22;3852;52.284;8.032;2022-07-03T14:26:43;27.40;99.90
7622;DHT22;3852;52.284;8.032;2022-07-03T14:29:27;27.20;99.90
7622;DHT22;3852;52.284;8.032;2022-07-03T14:32:11;26.90;99.90
7622;DHT22;3852;52.284;8.032;2022-07-03T14:34:59;27.00;99.90
7622;DHT22;3852;52.284;8.032;2022-07-03T14:37:27;27.00;99.90
7622;DHT22;3852;52.284;8.032;2022-07-03T14:39:53;27.20;99.90
7622;DHT22;3852;52.284;8.032;2022-07-03T14:42:19;27.60;99.90
7622;DHT22;3852;52.284;8.032;2022-07-03T14:44:45;27.90;99.90
7622;DHT22;3852;52.284;8.032;2022-07-03T14:47:11;28.00;99.90
7622;DHT22;3852;52.284;8.032;2022-07-03T14:49:37;28.20;99.90
7622;DHT22;3852;52.284;8.032;2022-07-03T14:52:05;28.10;99.90
7622;DHT22;3852;52.284;8.032;2022-07-03T14:54:32;28.20;99.90
7622;DHT22;3852;52.284;8.032;2022-07-03T14:57:00;28.40;99.90
7622;DHT22;3852;52.284;8.032;2022-07-03T15:02:22;28.70;99.90
7622;DHT22;3852;52.284;8.032;2022-07-03T15:04:58;28.70;99.90
7622;DHT22;3852;52.284;8.032;2022-07-03T15:07:30;29.00;99.90
7622;DHT22;3852;52.284;8.032;2022-07-03T15:10:04;28.90;99.90
7622;DHT22;3852;52.284;8.032;2022-07-03T15:12:56;28.90;99.90
7622;DHT22;3852;52.284;8.032;2022-07-03T15:15:23;29.00;99.90
7622;DHT22;3852;52.284;8.032;2022-07-03T15:17:52;29.00;99.90
7622;DHT22;3852;52.284;8.032;2022-07-03T15:20:19;29.00;99.90
7622;DHT22;3852;52.284;8.032;2022-07-03T15:22:51;28.60;99.90
7622;DHT22;3852;52.284;8.032;2022-07-03T15:25:18;28.50;99.90
7622;DHT22;3852;52.284;8.032;2022-07-03T15:27:52;27.80;99.90
7622;DHT22;3852;52.284;8.032;2022-07-03T15:30:21;27.00;99.90
7622;DHT22;3852;52.284;8.032;2022-07-03T15:32:48;26.60;99.90
7622;DHT22;3852;52.284;8.032;2022-07-03T15:35:16;26.50;99.90
7622;DHT22;3852;52.284;8.032;2022-07-03T15:40:45;26.70;99.90
7622;DHT22;3852;52.284;8.032;2022-07-03T15:43:20;26.50;99.90
7622;DHT22;3852;52.284;8.032;2022-07-03T15:48:31;26.80;99.90
7622;DHT22;3852;52.284;8.032;2022-07-03T15:51:21;26.70;99.90
7622;DHT22;3852;52.284;8.032;2022-07-03T15:53:57;26.70;99.90
7622;DHT22;3852;52.284;8.032;2022-07-03T15:56:33;26.60;99.90
7622;DHT22;3852;52.284;8.032;2022-07-03T15:59:06;26.50;99.90
7622;DHT22;3852;52.284;8.032;2022-07-03T16:01:53;26.50;99.90
7622;DHT22;3852;52.284;8.032;2022-07-03T16:07:39;26.80;99.90
7622;DHT22;3852;52.284;8.032;2022-07-03T16:10:07;27.00;99.90
7622;DHT22;3852;52.284;8.032;2022-07-03T16:12:34;27.00;99.90
7622;DHT22;3852;52.284;8.032;2022-07-03T16:15:03;26.80;99.90
7622;DHT22;3852;52.284;8.032;2022-07-03T16:17:33;26.50;99.90
7622;DHT22;3852;52.284;8.032;2022-07-03T16:20:01;26.40;99.90
7622;DHT22;3852;52.284;8.032;2022-07-03T16:22:29;26.30;99.90
7622;DHT22;3852;52.284;8.032;2022-07-03T16:25:01;26.40;99.90
7622;DHT22;3852;52.284;8.032;2022-07-03T16:27:28;26.40;99.90
7622;DHT22;3852;52.284;8.032;2022-07-03T16:29:54;26.30;99.90
7622;DHT22;3852;52.284;8.032;2022-07-03T16:32:28;26.40;99.90
7622;DHT22;3852;52.284;8.032;2022-07-03T16:38:03;26.10;99.90
7622;DHT22;3852;52.284;8.032;2022-07-03T16:40:30;25.90;99.90
7622;DHT22;3852;52.284;8.032;2022-07-03T16:42:59;25.80;99.90
7622;DHT22;3852;52.284;8.032;2022-07-03T16:45:30;25.50;99.90
7622;DHT22;3852;52.284;8.032;2022-07-03T16:48:21;25.40;99.90
7622;DHT22;3852;52.284;8.032;2022-07-03T16:50:52;25.10;99.90
7622;DHT22;3852;52.284;8.032;2022-07-03T16:53:20;25.20;99.90
7622;DHT22;3852;52.284;8.032;2022-07-03T16:55:46;25.30;99.90
7622;DHT22;3852;52.284;8.032;2022-07-03T16:58:13;25.50;99.90
7622;DHT22;3852;52.284;8.032;2022-07-03T17:00:40;25.60;99.90
7622;DHT22;3852;52.284;8.032;2022-07-03T17:03:08;25.70;99.90
7622;DHT22;3852;52.284;8.032;2022-07-03T17:05:36;25.70;99.90
7622;DHT22;3852;52.284;8.032;2022-07-03T17:08:02;25.70;99.90
7622;DHT22;3852;52.284;8.032;2022-07-03T17:10:29;25.40;99.90
7622;DHT22;3852;52.284;8.032;2022-07-03T17:12:58;25.30;99.90
7622;DHT22;3852;52.284;8.032;2022-07-03T17:15:26;25.30;99.90
7622;DHT22;3852;52.284;8.032;2022-07-03T17:17:58;25.10;99.90
7622;DHT22;3852;52.284;8.032;2022-07-03T17:20:34;24.90;99.90
7622;DHT22;3852;52.284;8.032;2022-07-03T17:25:56;24.70;99.90
7622;DHT22;3852;52.284;8.032;2022-07-03T17:28:25;24.80;99.90
7622;DHT22;3852;52.284;8.032;2022-07-03T17:33:25;24.50;99.90
7622;DHT22;3852;52.284;8.032;2022-07-03T17:36:05;24.20;99.90
7622;DHT22;3852;52.284;8.032;2022-07-03T17:38:34;23.80;99.90